Terminal Aerodrome Forecast
Issued by NWS

Home | Current Version | Previous Version | Text Only | Print | Product List | Glossary Off
Versions: 1 2 3 4 5 6 7 8 9 10 11 12 13 14 15 16

000
FTUS43 KPAH 300530
TAFOWB
TAF
KOWB 300530Z 3006/0106 02005KT P6SM VCTS SCT045CB OVC070
     FM300800 15010KT P6SM SCT040 BKN200
     FM301200 17012KT 6SM -SHRA VCTS BKN050CB
     FM301700 18018G26KT 4SM TSRA BR OVC030CB
     FM010000 19017G25KT P6SM -SHRA OVC035=

USA.gov is the U.S. government's official web portal to all federal, state and local government web resources and services.